Time;durP1;ratioP1;P1;durP2;ratioP2;P2;SDS_P1;SDS_P2;PMS_P1;PMS_P2;Temp;Humidity;BMP_temperature;BMP_pressure;BME280_temperature;BME280_humidity;BME280_pressure;Samples;Min_cycle;Max_cycle;Signal;HPM_P1;HPM_P2
2022/05/12 00:00:20;;;;;;;5.22;1.45;;;12.50;99.90;;;;;;4955028;29;20073;-73
2022/05/12 00:02:46;;;;;;;6.15;1.40;;;10.90;99.90;;;;;;4954947;29;20062;-74
2022/05/12 00:05:13;;;;;;;7.20;1.48;;;10.70;99.90;;;;;;4955032;29;20051;-75
2022/05/12 00:07:38;;;;;;;5.15;1.20;;;10.90;99.90;;;;;;4955089;29;20403;-70
2022/05/12 00:10:08;;;;;;;3.70;1.13;;;10.90;99.90;;;;;;4954817;29;20047;-72
2022/05/12 00:12:34;;;;;;;9.13;1.58;;;10.70;99.90;;;;;;4954696;29;20043;-73
2022/05/12 00:15:01;;;;;;;3.85;1.35;;;11.00;99.90;;;;;;4954798;29;20043;-70
2022/05/12 00:17:27;;;;;;;3.30;1.52;;;10.90;99.90;;;;;;4954607;29;20051;-71
2022/05/12 00:19:52;;;;;;;6.57;1.30;;;10.80;99.90;;;;;;4954942;29;20051;-72
2022/05/12 00:22:18;;;;;;;4.22;1.60;;;10.90;99.90;;;;;;4954512;29;20408;-70
2022/05/12 00:24:44;;;;;;;5.78;1.38;;;10.80;99.90;;;;;;4937818;29;20078;-71
2022/05/12 00:27:09;;;;;;;2.85;1.35;;;10.50;99.90;;;;;;4954662;29;20372;-69
2022/05/12 00:29:35;;;;;;;4.85;1.40;;;10.90;99.90;;;;;;4954590;29;20495;-74
2022/05/12 00:32:01;;;;;;;5.15;1.38;;;11.50;99.90;;;;;;4954317;29;20550;-73
2022/05/12 00:34:26;;;;;;;3.60;1.42;;;10.70;99.90;;;;;;4954076;28;20055;-74
2022/05/12 00:36:52;;;;;;;5.57;1.50;;;10.30;99.90;;;;;;4954693;29;20090;-71
2022/05/12 00:39:18;;;;;;;2.97;1.50;;;11.10;99.90;;;;;;4954565;29;20443;-71
2022/05/12 00:41:44;;;;;;;5.80;1.45;;;10.70;99.90;;;;;;4954493;29;20451;-71
2022/05/12 00:44:13;;;;;;;5.68;1.65;;;10.80;99.90;;;;;;4936992;29;20058;-71
2022/05/12 00:46:41;;;;;;;7.68;2.22;;;10.90;99.90;;;;;;4954302;29;20047;-72
2022/05/12 00:49:19;;;;;;;5.50;1.75;;;10.70;99.90;;;;;;4954332;29;20063;-72
2022/05/12 00:52:00;;;;;;;8.93;1.77;;;11.40;99.90;;;;;;4954356;29;20062;-71
2022/05/12 00:54:51;;;;;;;4.90;1.85;;;10.70;99.90;;;;;;4954461;29;20043;-71
2022/05/12 00:57:25;;;;;;;4.47;2.30;;;10.70;99.90;;;;;;4954281;29;20051;-71
2022/05/12 00:59:51;;;;;;;6.65;1.90;;;10.40;99.90;;;;;;4954248;29;20503;-69
2022/05/12 01:02:19;;;;;;;4.70;1.90;;;10.70;99.90;;;;;;4954175;29;20055;-69
2022/05/12 01:04:47;;;;;;;6.70;2.40;;;10.70;99.90;;;;;;4937311;29;20066;-70
2022/05/12 01:07:13;;;;;;;6.55;2.50;;;10.70;99.90;;;;;;4954177;29;20082;-70
2022/05/12 01:09:39;;;;;;;5.03;2.33;;;10.70;99.90;;;;;;4937128;29;20063;-70
2022/05/12 01:12:06;;;;;;;6.25;2.25;;;10.70;99.90;;;;;;4954298;29;20047;-68
2022/05/12 01:14:31;;;;;;;6.60;2.35;;;10.60;99.90;;;;;;4954243;29;20415;-68
2022/05/12 01:17:00;;;;;;;5.90;1.95;;;10.80;99.90;;;;;;4954274;29;20051;-72
2022/05/12 01:19:29;;;;;;;4.43;2.08;;;11.80;99.90;;;;;;4954021;29;20054;-70
2022/05/12 01:21:56;;;;;;;6.72;2.17;;;11.60;99.90;;;;;;4954080;29;20141;-73
2022/05/12 01:24:34;;;;;;;4.00;2.08;;;11.10;99.90;;;;;;4953906;29;20145;-72
2022/05/12 01:27:22;;;;;;;5.97;2.58;;;10.20;99.90;;;;;;4954103;29;20055;-72
2022/05/12 01:29:51;;;;;;;5.38;2.60;;;10.50;99.90;;;;;;4939317;29;20052;-73
2022/05/12 01:32:18;;;;;;;6.45;2.70;;;11.40;99.90;;;;;;4953857;29;20043;-71
2022/05/12 01:34:45;;;;;;;6.68;2.72;;;10.20;99.90;;;;;;4953886;29;20067;-70
2022/05/12 01:37:10;;;;;;;6.55;3.00;;;10.20;99.90;;;;;;4953747;29;20043;-71
2022/05/12 01:39:36;;;;;;;8.52;2.72;;;10.10;99.90;;;;;;4953928;29;20051;-69
2022/05/12 01:42:04;;;;;;;7.35;3.20;;;10.00;99.90;;;;;;4953750;29;20110;-71
2022/05/12 01:44:30;;;;;;;12.90;3.47;;;10.30;99.90;;;;;;4937443;28;20118;-70
2022/05/12 01:46:57;;;;;;;8.88;3.22;;;9.90;99.90;;;;;;4957469;29;20051;-70
2022/05/12 01:49:23;;;;;;;10.07;3.08;;;10.10;99.90;;;;;;4957371;29;20467;-71
2022/05/12 01:51:57;;;;;;;8.43;3.60;;;10.90;99.90;;;;;;4957536;29;20039;-71
2022/05/12 01:54:24;;;;;;;7.63;3.17;;;10.20;99.90;;;;;;4957344;29;20055;-74
2022/05/12 01:56:51;;;;;;;7.18;3.00;;;10.20;99.90;;;;;;4957299;29;20091;-73
2022/05/12 01:59:18;;;;;;;;;;;10.00;99.90;;;;;;4957610;29;20086;-71
2022/05/12 02:01:47;;;;;;;10.38;2.75;;;9.80;99.90;;;;;;4957042;29;19922;-72
2022/05/12 02:04:14;;;;;;;7.00;2.85;;;10.10;99.90;;;;;;4957368;29;20061;-73
2022/05/12 02:06:39;;;;;;;8.30;3.30;;;9.70;99.90;;;;;;4940012;29;20063;-73
2022/05/12 02:09:06;;;;;;;9.52;3.00;;;10.30;99.90;;;;;;4940281;29;20114;-73
2022/05/12 02:11:31;;;;;;;11.45;3.30;;;10.00;99.90;;;;;;4957013;29;20047;-73
2022/05/12 02:13:57;;;;;;;7.38;3.88;;;9.80;99.90;;;;;;4955833;29;20069;-72
2022/05/12 02:16:25;;;;;;;7.65;3.67;;;9.50;99.90;;;;;;4939834;29;20062;-73
2022/05/12 02:18:52;;;;;;;12.23;3.85;;;9.70;99.90;;;;;;4956987;29;20055;-72
2022/05/12 02:21:18;;;;;;;14.57;3.78;;;9.50;99.90;;;;;;4955755;29;20047;-73
2022/05/12 02:23:44;;;;;;;9.90;4.43;;;9.40;99.90;;;;;;4956729;29;20078;-73
2022/05/12 02:26:10;;;;;;;15.38;4.70;;;9.50;99.90;;;;;;4956848;29;20051;-73
2022/05/12 02:28:36;;;;;;;;;;;10.90;99.90;;;;;;4957082;29;20563;-74
2022/05/12 02:31:01;;;;;;;12.10;5.00;;;9.50;99.90;;;;;;4956487;29;20009;-72
2022/05/12 02:33:27;;;;;;;11.02;4.63;;;9.00;99.90;;;;;;4956594;29;20047;-73
2022/05/12 02:35:53;;;;;;;15.13;4.63;;;9.10;99.90;;;;;;4939791;29;20073;-74
2022/05/12 02:38:19;;;;;;;16.13;5.32;;;9.10;99.90;;;;;;4956477;29;20050;-73
2022/05/12 02:40:45;;;;;;;12.80;4.80;;;10.50;99.90;;;;;;4956580;29;20051;-73
2022/05/12 02:43:23;;;;;;;20.15;4.22;;;9.00;99.90;;;;;;4956342;29;20055;-72
2022/05/12 02:45:55;;;;;;;14.75;4.85;;;9.20;99.90;;;;;;4956507;29;20117;-73
2022/05/12 02:48:23;;;;;;;16.30;4.57;;;9.60;99.90;;;;;;4956486;29;20511;-73
2022/05/12 02:50:49;;;;;;;15.98;5.28;;;9.00;99.90;;;;;;4956179;29;20055;-74
2022/05/12 02:53:15;;;;;;;15.00;4.40;;;9.30;99.90;;;;;;4956347;29;20050;-74
2022/05/12 02:55:41;;;;;;;15.65;4.82;;;10.50;99.90;;;;;;4939049;29;20412;-74
2022/05/12 02:58:08;;;;;;;15.32;4.65;;;9.70;99.90;;;;;;4955549;28;20050;-73
2022/05/12 03:00:33;;;;;;;18.50;5.00;;;9.90;99.90;;;;;;4939433;29;20051;-75
2022/05/12 03:03:00;;;;;;;15.82;4.82;;;8.80;99.90;;;;;;4939057;29;20065;-74
2022/05/12 03:05:26;;;;;;;;;;;9.40;99.90;;;;;;4956531;29;20058;-73
2022/05/12 03:07:52;;;;;;;14.30;4.38;;;9.00;99.90;;;;;;4954811;29;20278;-74
2022/05/12 03:10:18;;;;;;;15.90;4.93;;;9.80;99.90;;;;;;4939003;29;20118;-74
2022/05/12 03:12:43;;;;;;;14.65;4.35;;;9.60;99.90;;;;;;4938480;29;20047;-74
2022/05/12 03:15:11;;;;;;;12.88;4.72;;;9.80;99.90;;;;;;4955780;29;20054;-74
2022/05/12 03:17:37;;;;;;;21.00;5.68;;;9.00;99.90;;;;;;4955748;29;20055;-73
2022/05/12 03:20:06;;;;;;;17.88;4.93;;;9.40;99.90;;;;;;4955825;29;20066;-72
2022/05/12 03:22:32;;;;;;;14.40;5.60;;;9.00;99.90;;;;;;4955766;29;20061;-73
2022/05/12 03:24:58;;;;;;;14.18;5.22;;;10.00;99.90;;;;;;4938449;29;20047;-72
2022/05/12 03:27:24;;;;;;;12.90;5.55;;;9.20;99.90;;;;;;4938348;29;20055;-74
2022/05/12 03:29:49;;;;;;;14.43;4.90;;;9.00;99.90;;;;;;4955649;29;20086;-73
2022/05/12 03:32:15;;;;;;;15.65;6.22;;;9.00;99.90;;;;;;4955628;29;20043;-74
2022/05/12 03:34:41;;;;;;;19.70;5.75;;;9.40;99.90;;;;;;4955423;29;20372;-73
2022/05/12 03:37:08;;;;;;;17.58;5.43;;;9.00;99.90;;;;;;4954296;29;20063;-73
2022/05/12 03:39:36;;;;;;;18.83;6.57;;;8.90;99.90;;;;;;4955365;29;20058;-75
2022/05/12 03:42:03;;;;;;;15.20;5.90;;;10.40;99.90;;;;;;4955279;29;20043;-73
2022/05/12 03:44:46;;;;;;;17.48;6.30;;;8.90;99.90;;;;;;4955236;29;20542;-74
2022/05/12 03:47:14;;;;;;;24.42;6.50;;;8.90;99.90;;;;;;4955225;29;20102;-72
2022/05/12 03:49:41;;;;;;;13.63;6.22;;;9.10;99.90;;;;;;4955254;29;20566;-74
2022/05/12 03:52:08;;;;;;;17.17;6.65;;;9.10;99.90;;;;;;4955023;29;20047;-73
2022/05/12 03:54:34;;;;;;;;;;;9.10;99.90;;;;;;4955387;29;20043;-71
2022/05/12 03:57:01;;;;;;;19.25;8.05;;;8.90;99.90;;;;;;4955302;29;19926;-74
2022/05/12 03:59:27;;;;;;;23.70;7.55;;;8.70;99.90;;;;;;4955153;29;20069;-74
2022/05/12 04:01:52;;;;;;;18.10;7.82;;;8.90;99.90;;;;;;4955074;29;20134;-74
2022/05/12 04:04:18;;;;;;;20.38;8.32;;;10.10;99.90;;;;;;4954955;29;20055;-74
2022/05/12 04:06:43;;;;;;;26.90;8.32;;;9.20;99.90;;;;;;4954859;29;20062;-73
2022/05/12 04:09:10;;;;;;;23.02;8.32;;;8.90;99.90;;;;;;4954080;28;20051;-73
2022/05/12 04:11:35;;;;;;;;;;;8.70;99.90;;;;;;4955385;29;20058;-73
2022/05/12 04:14:02;;;;;;;19.30;8.55;;;8.90;99.90;;;;;;4954730;29;19922;-74
2022/05/12 04:16:27;;;;;;;18.27;7.57;;;10.50;99.90;;;;;;4954890;29;20439;-73
2022/05/12 04:18:53;;;;;;;23.27;8.18;;;8.90;99.90;;;;;;4937815;29;20190;-73
2022/05/12 04:21:19;;;;;;;18.55;8.25;;;9.00;99.90;;;;;;4954604;29;20051;-74
2022/05/12 04:23:44;;;;;;;18.17;8.43;;;8.80;99.90;;;;;;4921636;29;20047;-75
2022/05/12 04:26:11;;;;;;;22.83;8.27;;;9.10;99.90;;;;;;4954733;29;20051;-74
2022/05/12 04:28:37;;;;;;;27.85;8.75;;;8.70;99.90;;;;;;4954671;29;20043;-73
2022/05/12 04:31:02;;;;;;;19.58;8.20;;;9.40;99.90;;;;;;4954475;29;20051;-74
2022/05/12 04:36:13;;;;;;;22.60;8.57;;;9.80;99.90;;;;;;4954433;29;20491;-73
2022/05/12 04:38:39;;;;;;;16.88;8.40;;;9.90;99.90;;;;;;4937543;29;20102;-74
2022/05/12 04:41:06;;;;;;;23.60;7.82;;;9.50;99.90;;;;;;4953414;29;20098;-74
2022/05/12 04:43:34;;;;;;;14.95;8.13;;;9.50;99.90;;;;;;4954228;29;20407;-74
2022/05/12 04:46:00;;;;;;;22.33;9.10;;;9.70;99.90;;;;;;4954408;29;20055;-73
2022/05/12 04:48:29;;;;;;;17.85;7.65;;;9.70;99.90;;;;;;4954330;29;20050;-73
2022/05/12 04:50:55;;;;;;;25.42;8.55;;;11.10;99.90;;;;;;4954053;29;20061;-75
2022/05/12 04:53:21;;;;;;;15.15;8.48;;;9.60;99.90;;;;;;4954440;29;20043;-74
2022/05/12 04:55:47;;;;;;;18.63;8.52;;;11.20;99.90;;;;;;4954362;29;20452;-74
2022/05/12 04:58:13;;;;;;;12.52;8.00;;;9.90;99.90;;;;;;4972632;28;20089;-73
2022/05/12 05:00:41;;;;;;;19.38;8.38;;;10.30;99.90;;;;;;4992822;28;20129;-74
2022/05/12 05:03:08;;;;;;;24.27;7.53;;;9.90;99.90;;;;;;4992852;28;20054;-74
2022/05/12 05:05:35;;;;;;;19.20;8.20;;;10.10;99.90;;;;;;4975601;28;20073;-72
2022/05/12 05:08:01;;;;;;;22.10;8.07;;;10.40;99.90;;;;;;4966530;28;20055;-78
2022/05/12 05:10:27;;;;;;;16.50;7.38;;;10.90;99.90;;;;;;4970337;28;20061;-73
2022/05/12 05:12:53;;;;;;;14.30;7.55;;;10.20;99.90;;;;;;4971000;28;20043;-74
2022/05/12 05:15:21;;;;;;;22.75;7.82;;;10.50;99.90;;;;;;4971924;28;20053;-71
2022/05/12 05:17:47;;;;;;;21.02;8.32;;;10.80;99.90;;;;;;4973223;28;20043;-73
2022/05/12 05:20:20;;;;;;;20.20;7.30;;;10.90;99.90;;;;;;4965086;28;20038;-72
2022/05/12 05:22:46;;;;;;;18.60;8.02;;;11.00;99.90;;;;;;4951743;28;20046;-73
2022/05/12 05:25:13;;;;;;;21.30;8.23;;;10.70;99.90;;;;;;4975711;28;20046;-71
2022/05/12 05:27:39;;;;;;;16.55;7.57;;;11.30;99.90;;;;;;4975833;28;20082;-75
2022/05/12 05:30:07;;;;;;;19.35;7.22;;;11.00;99.90;;;;;;4971750;28;20078;-73
2022/05/12 05:32:32;;;;;;;18.55;7.00;;;10.80;99.90;;;;;;4975592;28;20055;-73
2022/05/12 05:34:58;;;;;;;16.80;6.78;;;12.10;99.90;;;;;;4975877;28;20046;-73
2022/05/12 05:37:24;;;;;;;17.30;6.60;;;11.50;99.90;;;;;;4975365;28;20047;-74
2022/05/12 05:39:50;;;;;;;23.48;7.28;;;11.40;99.90;;;;;;4975710;28;20054;-73
2022/05/12 05:42:18;;;;;;;16.65;6.53;;;11.60;99.90;;;;;;4975032;28;20384;-75
2022/05/12 05:44:44;;;;;;;16.25;6.65;;;11.70;99.90;;;;;;4974602;28;20483;-74
2022/05/12 05:47:09;;;;;;;13.27;5.97;;;11.60;99.90;;;;;;4975975;28;20137;-73
2022/05/12 05:49:36;;;;;;;16.10;5.75;;;11.30;99.90;;;;;;4958221;28;20508;-74
2022/05/12 05:54:46;;;;;;;17.02;5.43;;;11.90;99.90;;;;;;4987003;28;20138;-73
2022/05/12 05:57:12;;;;;;;16.27;5.72;;;12.00;99.90;;;;;;4981195;28;20133;-73
2022/05/12 05:59:38;;;;;;;13.20;4.75;;;12.00;99.90;;;;;;4974364;28;20046;-73
2022/05/12 06:02:04;;;;;;;13.10;4.43;;;11.60;99.90;;;;;;4977265;28;20082;-71
2022/05/12 06:04:30;;;;;;;13.07;3.85;;;11.70;99.90;;;;;;4985838;28;20051;-71
2022/05/12 06:06:57;;;;;;;10.80;4.50;;;12.00;99.90;;;;;;4984262;28;20053;-75
2022/05/12 06:09:23;;;;;;;8.35;4.03;;;12.00;99.90;;;;;;4987798;28;20054;-73
2022/05/12 06:11:49;;;;;;;14.57;4.00;;;12.50;99.90;;;;;;4976131;28;20051;-74
2022/05/12 06:14:16;;;;;;;15.27;4.40;;;12.40;99.90;;;;;;4974621;28;20348;-71
2022/05/12 06:16:42;;;;;;;15.68;5.18;;;13.10;99.90;;;;;;4976447;28;20462;-74
2022/05/12 06:19:07;;;;;;;;;;;12.40;99.90;;;;;;4959282;28;20133;-75
2022/05/12 06:21:37;;;;;;;13.77;4.20;;;12.30;99.90;;;;;;4995015;28;20015;-73
2022/05/12 06:24:03;;;;;;;12.93;3.80;;;12.70;99.90;;;;;;4963763;28;20047;-74
2022/05/12 06:26:29;;;;;;;15.88;4.18;;;12.50;99.90;;;;;;4956691;29;20492;-72
2022/05/12 06:28:56;;;;;;;16.85;3.55;;;12.70;99.90;;;;;;4956679;29;20047;-73
2022/05/12 06:31:29;;;;;;;12.25;3.60;;;13.80;99.90;;;;;;4938830;29;20122;-72
2022/05/12 06:33:56;;;;;;;19.77;4.00;;;14.10;99.90;;;;;;4956617;29;20407;-71
2022/05/12 06:36:22;;;;;;;9.93;3.28;;;12.90;99.90;;;;;;4956621;29;20057;-73
2022/05/12 06:38:48;;;;;;;13.85;3.22;;;12.90;99.90;;;;;;4956639;29;20050;-72
2022/05/12 06:41:14;;;;;;;18.63;3.58;;;13.20;99.90;;;;;;4956341;29;20407;-73
2022/05/12 06:43:47;;;;;;;16.45;3.85;;;13.30;99.90;;;;;;4939395;29;20051;-73
2022/05/12 06:46:17;;;;;;;18.33;3.45;;;14.70;99.90;;;;;;4956606;29;20482;-72
2022/05/12 06:48:46;;;;;;;17.30;3.53;;;13.80;99.90;;;;;;4956391;29;20086;-74
2022/05/12 06:51:11;;;;;;;12.20;3.38;;;13.30;99.90;;;;;;4956308;29;20043;-75
2022/05/12 06:53:38;;;;;;;13.05;3.22;;;14.10;99.90;;;;;;4956200;29;20053;-73
2022/05/12 06:56:04;;;;;;;12.90;3.35;;;13.00;99.90;;;;;;4923574;29;20062;-73
2022/05/12 06:58:30;;;;;;;;;;;13.50;99.90;;;;;;4956624;29;20097;-71
2022/05/12 07:00:56;;;;;;;12.68;3.33;;;13.50;99.90;;;;;;4939371;29;20024;-70
2022/05/12 07:03:22;;;;;;;;;;;13.20;99.90;;;;;;4956442;29;20655;-76
2022/05/12 07:05:48;;;;;;;11.48;3.70;;;13.30;99.90;;;;;;4956063;29;19923;-75
2022/05/12 07:08:13;;;;;;;12.00;2.85;;;13.30;99.90;;;;;;4955991;29;20055;-72
2022/05/12 07:10:39;;;;;;;15.85;3.25;;;13.60;99.90;;;;;;4956198;29;20051;-70
2022/05/12 07:13:05;;;;;;;12.50;2.88;;;13.50;99.90;;;;;;4956015;29;20050;-72
2022/05/12 07:15:31;;;;;;;11.93;2.80;;;13.60;99.90;;;;;;4955892;29;20059;-71
2022/05/12 07:17:59;;;;;;;15.38;3.35;;;13.60;99.90;;;;;;4955909;29;20053;-73
2022/05/12 07:28:43;;;;;;;15.50;3.03;;;13.60;99.90;;;;;;4955639;29;20565;-71
2022/05/12 07:31:09;;;;;;;15.45;2.92;;;14.00;99.90;;;;;;4938203;29;20407;-73
2022/05/12 07:33:43;;;;;;;14.98;3.45;;;14.00;99.90;;;;;;4955548;29;20557;-71
2022/05/12 07:36:17;;;;;;;11.10;3.03;;;14.00;99.90;;;;;;4955650;29;20062;-69
2022/05/12 07:38:43;;;;;;;14.63;3.05;;;14.00;99.90;;;;;;4955618;29;20508;-74
2022/05/12 07:41:12;;;;;;;13.82;3.53;;;13.90;99.90;;;;;;4955267;29;20043;-72
2022/05/12 07:43:42;;;;;;;14.13;2.90;;;14.40;99.90;;;;;;4955093;28;20067;-73
2022/05/12 07:46:10;;;;;;;17.25;3.38;;;14.50;99.90;;;;;;4955399;29;20149;-73
2022/05/12 07:48:36;;;;;;;10.20;2.67;;;15.30;99.90;;;;;;4955478;29;20059;-71
2022/05/12 07:51:02;;;;;;;;;;;14.30;99.90;;;;;;4955507;29;20050;-72
2022/05/12 07:53:27;;;;;;;11.98;3.00;;;14.60;99.90;;;;;;4938086;29;19926;-72
2022/05/12 07:55:53;;;;;;;10.32;2.67;;;14.80;99.90;;;;;;4955218;29;20047;-69
2022/05/12 07:58:19;;;;;;;12.73;3.00;;;14.90;99.90;;;;;;4954815;29;20051;-71
2022/05/12 08:00:45;;;;;;;18.55;3.25;;;14.80;99.90;;;;;;4955358;29;20101;-73
2022/05/12 08:03:11;;;;;;;12.23;3.13;;;14.70;99.90;;;;;;4955080;29;20134;-75
2022/05/12 08:05:38;;;;;;;13.05;2.92;;;15.20;99.90;;;;;;4955189;29;20058;-71
2022/05/12 08:08:06;;;;;;;13.05;2.75;;;14.90;99.90;;;;;;4955039;29;20133;-74
2022/05/12 08:10:33;;;;;;;10.00;2.40;;;14.60;99.90;;;;;;4955044;29;20058;-72
2022/05/12 08:12:59;;;;;;;9.07;2.72;;;15.20;99.90;;;;;;4954681;29;20078;-72
2022/05/12 08:15:25;;;;;;;15.05;2.50;;;15.50;99.90;;;;;;4954723;29;20087;-72
2022/05/12 08:17:56;;;;;;;14.70;2.80;;;14.60;99.90;;;;;;4954995;29;20098;-73
2022/05/12 08:20:23;;;;;;;13.43;2.50;;;15.10;99.90;;;;;;4937896;29;20066;-74
2022/05/12 08:22:49;;;;;;;15.85;2.83;;;15.10;99.90;;;;;;4954789;29;20106;-72
2022/05/12 08:25:15;;;;;;;8.65;3.00;;;16.70;99.90;;;;;;4937691;29;20043;-72
2022/05/12 08:27:40;;;;;;;;;;;15.10;99.90;;;;;;4955046;29;20506;-71
2022/05/12 08:30:09;;;;;;;8.18;2.50;;;15.10;99.90;;;;;;4954775;29;20017;-69
2022/05/12 08:32:35;;;;;;;10.32;2.47;;;15.60;99.90;;;;;;4954616;29;20047;-69
2022/05/12 08:35:00;;;;;;;11.02;2.20;;;15.40;99.90;;;;;;4954775;29;20058;-69
2022/05/12 08:37:26;;;;;;;;;;;15.20;99.90;;;;;;4954894;29;20082;-71
2022/05/12 08:39:52;;;;;;;7.47;2.05;;;15.40;99.90;;;;;;4954551;29;19938;-72
2022/05/12 08:42:26;;;;;;;;;;;15.50;99.90;;;;;;4954790;29;20107;-76
2022/05/12 08:44:54;;;;;;;6.70;2.17;;;15.60;99.90;;;;;;4954496;29;19922;-70
2022/05/12 08:47:30;;;;;;;11.98;2.85;;;16.00;99.90;;;;;;4954356;29;20059;-72
2022/05/12 08:49:57;;;;;;;7.57;2.20;;;15.90;99.90;;;;;;4954408;29;20131;-71
2022/05/12 08:52:27;;;;;;;9.55;2.28;;;16.10;99.90;;;;;;4954337;29;20050;-71
2022/05/12 08:55:18;;;;;;;8.75;2.45;;;16.30;99.90;;;;;;4953768;29;20058;-72
2022/05/12 08:57:58;;;;;;;11.15;2.03;;;16.50;99.90;;;;;;4954585;29;20096;-71
2022/05/12 09:00:26;;;;;;;10.32;2.20;;;16.00;99.90;;;;;;4954452;29;20058;-71
2022/05/12 09:03:13;;;;;;;7.15;2.10;;;15.70;99.90;;;;;;4954206;29;20126;-71
2022/05/12 09:06:14;;;;;;;8.50;2.10;;;15.80;99.90;;;;;;4954499;29;20051;-71
2022/05/12 09:08:58;;;;;;;11.18;1.85;;;15.80;99.90;;;;;;4953780;29;20138;-71
2022/05/12 09:11:44;;;;;;;9.68;2.05;;;16.10;99.90;;;;;;4955582;28;20069;-70
2022/05/12 09:14:17;;;;;;;8.27;1.90;;;16.00;99.90;;;;;;4973484;28;20050;-68
2022/05/12 09:16:45;;;;;;;5.55;1.80;;;15.80;99.90;;;;;;4973506;28;20462;-71
2022/05/12 09:19:15;;;;;;;7.28;2.28;;;15.70;99.90;;;;;;4973456;28;20125;-71
2022/05/12 09:21:41;;;;;;;6.15;1.60;;;15.90;99.90;;;;;;4973358;28;20042;-70
2022/05/12 09:24:09;;;;;;;8.50;2.28;;;15.70;99.90;;;;;;4973588;28;20057;-70
2022/05/12 09:26:48;;;;;;;8.13;2.17;;;16.30;99.90;;;;;;4973335;28;20122;-70
2022/05/12 09:29:29;;;;;;;10.80;1.92;;;16.60;99.90;;;;;;4973391;28;20047;-70
2022/05/12 09:32:17;;;;;;;8.90;1.75;;;16.60;99.90;;;;;;4973228;28;20055;-71
2022/05/12 09:35:03;;;;;;;5.07;1.88;;;16.70;99.90;;;;;;4956127;28;20114;-70
2022/05/12 09:37:29;;;;;;;3.78;1.50;;;16.10;99.90;;;;;;4973424;28;20058;-73
2022/05/12 09:40:15;;;;;;;7.97;1.98;;;16.00;99.90;;;;;;4955867;28;20412;-69
2022/05/12 09:42:48;;;;;;;6.00;1.88;;;16.00;99.90;;;;;;4973116;28;20039;-72
2022/05/12 09:45:36;;;;;;;10.77;2.08;;;16.20;99.90;;;;;;4973286;28;20422;-70
2022/05/12 09:48:12;;;;;;;6.25;1.80;;;18.00;99.90;;;;;;4973245;28;20047;-71
2022/05/12 09:50:38;;;;;;;5.80;1.75;;;16.40;99.90;;;;;;4973175;28;20051;-69
2022/05/12 09:53:07;;;;;;;5.00;1.85;;;16.60;99.90;;;;;;4972860;28;20398;-70
2022/05/12 09:55:56;;;;;;;7.18;1.98;;;16.70;99.90;;;;;;4973209;28;20046;-70
2022/05/12 09:58:38;;;;;;;7.93;2.13;;;16.50;99.90;;;;;;4955984;28;20562;-70
2022/05/12 10:01:17;;;;;;;5.93;1.90;;;16.00;99.90;;;;;;4973035;28;20051;-70
2022/05/12 10:09:53;;;;;;;9.00;1.85;;;16.50;99.90;;;;;;4976303;28;20051;-69
2022/05/12 10:12:30;;;;;;;6.10;1.70;;;17.30;99.90;;;;;;4976513;28;20061;-70
2022/05/12 10:14:56;;;;;;;5.95;1.70;;;16.90;99.90;;;;;;4959469;28;20086;-69
2022/05/12 10:17:27;;;;;;;;;;;16.50;99.90;;;;;;4976673;28;20050;-70
2022/05/12 10:19:54;;;;;;;6.70;1.70;;;16.20;99.90;;;;;;4976284;28;19981;-69
2022/05/12 10:22:32;;;;;;;2.40;1.33;;;16.20;99.90;;;;;;4976026;28;20046;-69
2022/05/12 10:25:07;;;;;;;5.20;1.70;;;16.50;99.90;;;;;;4976309;28;20161;-71
2022/05/12 10:27:52;;;;;;;19.50;2.10;;;16.40;99.90;;;;;;4976021;28;20050;-71
2022/05/12 10:30:38;;;;;;;4.60;1.60;;;16.90;99.90;;;;;;4976038;28;20432;-71
2022/05/12 10:33:39;;;;;;;4.95;1.30;;;16.60;99.90;;;;;;4976440;28;20054;-70
2022/05/12 10:36:35;;;;;;;2.72;1.33;;;16.60;99.90;;;;;;4942879;28;20062;-70
2022/05/12 10:39:06;;;;;;;7.65;1.58;;;16.70;99.90;;;;;;4975842;28;20050;-71
2022/05/12 10:41:39;;;;;;;2.83;1.25;;;16.40;99.90;;;;;;4976061;28;20124;-71
2022/05/12 10:44:30;;;;;;;5.35;1.35;;;16.80;99.90;;;;;;4975615;28;20058;-70
2022/05/12 10:47:08;;;;;;;4.22;1.50;;;16.80;99.90;;;;;;4975698;28;20065;-70
2022/05/12 10:49:41;;;;;;;5.93;1.40;;;17.10;99.90;;;;;;4958255;28;20259;-70
2022/05/12 10:52:45;;;;;;;3.45;1.60;;;16.90;99.90;;;;;;4975509;28;20479;-69
2022/05/12 10:55:18;;;;;;;6.63;1.65;;;16.70;99.90;;;;;;4975690;28;20093;-68
2022/05/12 10:58:05;;;;;;;3.08;1.65;;;16.90;99.90;;;;;;4975430;28;20832;-69
2022/05/12 11:01:09;;;;;;;5.82;1.70;;;16.90;99.90;;;;;;4958524;28;20051;-69
2022/05/12 11:03:48;;;;;;;9.45;2.60;;;17.20;99.90;;;;;;4975425;28;20525;-69
2022/05/12 11:06:18;;;;;;;7.07;2.60;;;17.00;99.90;;;;;;4975312;28;20055;-69
2022/05/12 11:08:50;;;;;;;5.72;1.65;;;17.00;99.90;;;;;;4975603;28;20055;-70
2022/05/12 11:11:27;;;;;;;5.25;1.38;;;17.30;99.90;;;;;;4975204;28;20047;-68
2022/05/12 11:14:11;;;;;;;4.00;1.60;;;17.30;99.90;;;;;;4975459;28;20047;-70
2022/05/12 11:17:06;;;;;;;5.47;1.70;;;17.50;99.90;;;;;;4975189;28;20090;-69
2022/05/12 11:19:32;;;;;;;9.07;2.28;;;17.10;99.90;;;;;;4975592;28;20062;-69
2022/05/12 11:22:03;;;;;;;;;;;16.60;99.90;;;;;;4958656;28;20498;-69
2022/05/12 11:24:38;;;;;;;3.97;1.83;;;16.80;99.90;;;;;;4974923;28;19928;-69
2022/05/12 11:27:38;;;;;;;13.48;1.90;;;17.00;99.90;;;;;;4974937;28;20055;-70
2022/05/12 11:30:33;;;;;;;5.40;2.00;;;17.90;99.90;;;;;;4975394;28;20050;-69
2022/05/12 11:33:13;;;;;;;10.57;2.03;;;18.10;99.90;;;;;;4974807;28;20043;-69
2022/05/12 11:35:45;;;;;;;5.25;1.70;;;18.00;99.90;;;;;;4974946;28;20086;-68
2022/05/12 11:38:40;;;;;;;6.05;1.73;;;18.10;99.90;;;;;;4974862;28;20047;-73
2022/05/12 11:41:37;;;;;;;4.75;1.30;;;18.20;99.90;;;;;;4974591;28;20051;-69
2022/05/12 11:44:34;;;;;;;4.68;1.60;;;18.40;99.90;;;;;;4974381;28;20054;-70
2022/05/12 11:47:21;;;;;;;6.03;1.50;;;17.90;99.90;;;;;;4974757;28;20474;-68
2022/05/12 11:49:56;;;;;;;;;;;18.50;99.90;;;;;;4975007;28;20676;-72
2022/05/12 11:52:51;;;;;;;6.50;1.77;;;18.70;99.90;;;;;;4974651;28;20008;-70
2022/05/12 11:55:27;;;;;;;6.47;1.83;;;18.70;99.90;;;;;;4974675;28;20066;-71
2022/05/12 11:58:12;;;;;;;3.08;1.27;;;19.10;99.90;;;;;;4974503;28;20129;-70
2022/05/12 12:00:40;;;;;;;8.27;2.10;;;18.90;99.90;;;;;;4974345;28;20415;-69
2022/05/12 12:03:23;;;;;;;4.10;1.60;;;18.70;99.90;;;;;;4974410;28;20062;-71
2022/05/12 12:05:49;;;;;;;4.13;1.73;;;18.20;99.90;;;;;;4957186;28;20097;-69
2022/05/12 12:08:30;;;;;;;;;;;17.50;99.90;;;;;;4974632;28;20094;-69
2022/05/12 12:11:20;;;;;;;10.80;1.95;;;17.80;99.90;;;;;;4973981;28;19926;-73
2022/05/12 12:13:51;;;;;;;9.52;2.20;;;17.60;99.90;;;;;;4974331;28;20133;-71
2022/05/12 12:16:19;;;;;;;8.80;1.80;;;18.30;99.90;;;;;;4974097;28;20055;-72
2022/05/12 12:18:55;;;;;;;5.60;1.95;;;18.30;99.90;;;;;;4956739;28;20490;-71
2022/05/12 12:21:39;;;;;;;5.15;1.58;;;18.60;99.90;;;;;;4974090;28;20050;-69
2022/05/12 12:24:20;;;;;;;6.95;1.90;;;19.10;99.90;;;;;;4974090;28;20410;-69
2022/05/12 12:26:54;;;;;;;7.55;2.00;;;18.70;99.90;;;;;;4956790;28;20090;-69
2022/05/12 12:29:47;;;;;;;3.67;1.60;;;18.30;99.90;;;;;;4973251;28;20134;-73
2022/05/12 12:32:32;;;;;;;6.60;1.83;;;18.00;99.90;;;;;;4973886;28;20050;-71
2022/05/12 12:35:28;;;;;;;4.53;1.50;;;18.50;99.90;;;;;;4956263;28;20066;-74
2022/05/12 12:37:54;;;;;;;5.95;1.55;;;18.00;99.90;;;;;;4956662;28;20053;-71
2022/05/12 12:40:50;;;;;;;3.03;1.60;;;18.10;99.90;;;;;;4973624;28;20434;-69
2022/05/12 12:43:27;;;;;;;5.07;1.50;;;17.50;99.90;;;;;;4961438;28;20506;-70
2022/05/12 12:45:54;;;;;;;8.43;2.30;;;17.00;99.90;;;;;;4973470;28;20066;-74
2022/05/12 12:48:37;;;;;;;5.90;1.52;;;17.50;99.90;;;;;;4973591;28;20054;-69
2022/05/12 12:51:03;;;;;;;5.93;1.83;;;17.40;99.90;;;;;;4973591;28;20059;-69
2022/05/12 12:56:35;;;;;;;6.60;1.65;;;17.80;99.90;;;;;;4973751;28;20410;-71
2022/05/12 12:59:22;;;;;;;5.07;1.63;;;18.40;99.90;;;;;;4973691;28;20047;-72
2022/05/12 13:01:48;;;;;;;7.05;2.05;;;18.30;99.90;;;;;;4973569;28;20047;-68
2022/05/12 13:04:16;;;;;;;5.93;1.60;;;18.30;99.90;;;;;;4973464;28;20101;-72
2022/05/12 13:06:49;;;;;;;5.30;1.55;;;18.50;99.90;;;;;;4973524;28;20047;-72
2022/05/12 13:09:15;;;;;;;4.72;1.63;;;18.50;99.90;;;;;;4973437;28;20046;-71
2022/05/12 13:11:42;;;;;;;7.55;1.83;;;18.40;99.90;;;;;;4973537;28;20057;-70
2022/05/12 13:14:11;;;;;;;8.63;1.83;;;18.50;99.90;;;;;;4973652;28;20051;-71
2022/05/12 13:16:42;;;;;;;7.22;1.70;;;18.40;99.90;;;;;;4956484;28;20423;-70
2022/05/12 13:19:09;;;;;;;3.85;1.50;;;18.90;99.90;;;;;;4973345;28;20043;-70
2022/05/12 13:21:46;;;;;;;5.93;1.50;;;18.80;99.90;;;;;;4956190;28;20049;-69
2022/05/12 13:24:31;;;;;;;13.43;2.00;;;18.60;99.90;;;;;;4973585;28;20055;-70
2022/05/12 13:27:00;;;;;;;8.88;2.65;;;18.60;99.90;;;;;;4973496;28;20051;-70
2022/05/12 13:29:31;;;;;;;5.07;1.35;;;18.70;99.90;;;;;;4973373;28;20450;-69